Time;durP1;ratioP1;P1;durP2;ratioP2;P2;SDS_P1;SDS_P2;PMS_P1;PMS_P2;Temp;Humidity;BMP_temperature;BMP_pressure;BME280_temperature;BME280_humidity;BME280_pressure;Samples;Min_cycle;Max_cycle;Signal;HPM_P1;HPM_P2
2023/10/01 08:34:27;;;;;;;7.15;2.50;;;23.50;99.90;;;;;;5018610;23;20573;-72
2023/10/01 08:36:55;;;;;;;6.07;2.50;;;23.60;99.90;;;;;;4996017;28;20300;-72
2023/10/01 08:39:33;;;;;;;8.40;2.65;;;23.50;99.90;;;;;;5031568;28;20225;-72
2023/10/01 08:42:08;;;;;;;8.02;2.72;;;23.60;99.90;;;;;;5015576;28;20229;-72
2023/10/01 08:44:44;;;;;;;10.82;3.50;;;23.50;99.90;;;;;;5015257;28;20263;-73
2023/10/01 08:47:28;;;;;;;8.27;2.92;;;23.50;99.90;;;;;;5014813;28;20229;-72
2023/10/01 08:49:57;;;;;;;9.00;2.90;;;23.50;99.90;;;;;;5002305;28;20238;-72
2023/10/01 08:52:27;;;;;;;9.23;3.30;;;23.50;99.90;;;;;;5015874;28;20681;-72
2023/10/01 08:54:54;;;;;;;8.65;3.03;;;23.40;99.90;;;;;;5015139;28;20237;-72
2023/10/01 08:57:36;;;;;;;7.53;3.05;;;23.20;99.90;;;;;;5015214;28;20601;-73
2023/10/01 09:00:15;;;;;;;8.60;3.47;;;23.50;99.90;;;;;;5014841;28;20221;-72
2023/10/01 09:02:42;;;;;;;8.70;2.60;;;23.50;99.90;;;;;;5014874;28;20228;-72
2023/10/01 09:05:11;;;;;;;8.45;2.95;;;23.40;99.90;;;;;;5014777;28;20241;-73
2023/10/01 09:07:47;;;;;;;9.40;3.03;;;23.10;99.90;;;;;;5014893;28;20305;-71
2023/10/01 09:10:17;;;;;;;7.97;3.05;;;22.80;99.90;;;;;;5015054;28;20217;-72
2023/10/01 09:12:46;;;;;;;8.70;3.47;;;22.70;99.90;;;;;;5014500;28;20304;-71
2023/10/01 09:15:27;;;;;;;8.77;2.78;;;22.40;99.90;;;;;;5014361;28;20214;-72
2023/10/01 09:17:57;;;;;;;6.20;2.22;;;22.40;99.90;;;;;;5014763;28;20201;-72
2023/10/01 09:20:42;;;;;;;4.97;2.30;;;22.20;99.90;;;;;;5013913;28;20312;-72
2023/10/01 09:23:09;;;;;;;8.60;3.25;;;22.20;99.90;;;;;;5013312;28;20198;-70
2023/10/01 09:25:39;;;;;;;7.75;2.50;;;22.20;99.90;;;;;;5014809;28;20725;-73
2023/10/01 09:28:20;;;;;;;7.75;2.85;;;22.30;99.90;;;;;;5015911;28;20205;-72
2023/10/01 09:31:19;;;;;;;7.10;2.88;;;22.30;99.90;;;;;;5014179;28;20772;-73
2023/10/01 09:33:48;;;;;;;8.95;2.65;;;22.20;99.90;;;;;;5014069;28;20209;-74
2023/10/01 09:36:35;;;;;;;6.22;2.42;;;22.20;99.90;;;;;;5014194;28;20240;-74
2023/10/01 09:39:04;;;;;;;11.05;3.22;;;22.30;99.90;;;;;;5014651;28;20209;-72
2023/10/01 09:41:33;;;;;;;6.20;2.22;;;22.40;99.90;;;;;;5013990;28;20206;-72
2023/10/01 09:44:03;;;;;;;7.20;2.25;;;22.30;99.90;;;;;;5015119;28;20197;-73
2023/10/01 09:46:34;;;;;;;7.82;2.92;;;22.20;99.90;;;;;;5014467;28;20233;-71
2023/10/01 09:49:02;;;;;;;9.30;2.63;;;22.10;99.90;;;;;;5014160;28;20213;-72
2023/10/01 09:51:34;;;;;;;6.72;2.70;;;22.10;99.90;;;;;;5013948;28;20213;-72
2023/10/01 09:54:04;;;;;;;10.88;3.30;;;22.10;99.90;;;;;;5013941;28;20210;-72
2023/10/01 09:56:46;;;;;;;7.22;2.90;;;22.10;99.90;;;;;;5013871;28;20241;-72
2023/10/01 09:59:15;;;;;;;6.70;3.00;;;22.10;99.90;;;;;;5013481;28;20312;-72
2023/10/01 10:01:45;;;;;;;8.65;2.58;;;22.20;99.90;;;;;;5014052;28;20293;-72
2023/10/01 10:04:19;;;;;;;7.05;2.65;;;22.20;99.90;;;;;;5012748;28;20252;-72
2023/10/01 10:06:59;;;;;;;12.10;2.97;;;22.30;99.90;;;;;;5013775;28;20255;-71
2023/10/01 10:09:29;;;;;;;7.40;2.97;;;22.50;99.90;;;;;;5012255;28;20249;-71
2023/10/01 10:12:01;;;;;;;7.22;2.55;;;22.50;99.90;;;;;;5013059;28;20201;-71
2023/10/01 10:14:45;;;;;;;6.38;2.80;;;22.60;99.90;;;;;;5013459;28;20271;-71
2023/10/01 10:17:19;;;;;;;5.20;2.40;;;22.60;99.90;;;;;;5013510;28;20760;-71
2023/10/01 10:20:15;;;;;;;5.45;2.22;;;22.50;99.90;;;;;;5013635;28;20642;-71
2023/10/01 10:23:13;;;;;;;8.30;2.40;;;22.50;99.90;;;;;;5013791;28;20205;-71
2023/10/01 10:25:40;;;;;;;6.82;2.58;;;22.60;99.90;;;;;;5013430;28;20253;-71
2023/10/01 10:28:09;;;;;;;6.22;2.45;;;22.80;99.90;;;;;;5013485;28;20681;-71
2023/10/01 10:30:41;;;;;;;6.88;2.90;;;22.80;99.90;;;;;;5013222;28;20237;-71
2023/10/01 10:33:38;;;;;;;8.48;3.05;;;22.80;99.90;;;;;;5013280;28;20217;-71
2023/10/01 10:40:22;;;;;;;6.28;2.38;;;22.90;99.90;;;;;;5004052;28;20226;-72
2023/10/01 10:43:19;;;;;;;6.13;2.50;;;22.90;99.90;;;;;;5008421;28;20287;-71
2023/10/01 10:46:04;;;;;;;6.70;2.10;;;23.00;99.90;;;;;;5013436;28;20209;-72
2023/10/01 10:48:59;;;;;;;6.07;2.20;;;23.00;99.90;;;;;;5012593;28;20201;-70
2023/10/01 10:51:45;;;;;;;7.10;2.50;;;22.90;99.90;;;;;;4993260;28;20693;-71
2023/10/01 10:54:16;;;;;;;5.30;2.10;;;22.90;99.90;;;;;;4995936;28;20237;-71
2023/10/01 10:56:44;;;;;;;8.40;2.65;;;22.90;99.90;;;;;;5012962;28;20234;-74
2023/10/01 10:59:15;;;;;;;7.10;2.17;;;23.00;99.90;;;;;;5012444;28;20253;-72
2023/10/01 11:01:44;;;;;;;6.68;2.85;;;22.90;99.90;;;;;;5012971;28;20289;-71
2023/10/01 11:04:12;;;;;;;6.00;2.53;;;23.00;99.90;;;;;;5012509;28;20210;-71
2023/10/01 11:06:43;;;;;;;7.07;2.63;;;23.00;99.90;;;;;;5012449;28;20249;-71
2023/10/01 11:09:24;;;;;;;7.57;2.30;;;23.10;99.90;;;;;;5011846;28;20271;-71
2023/10/01 11:11:51;;;;;;;8.02;2.53;;;23.10;99.90;;;;;;5011966;28;20666;-71
2023/10/01 11:14:20;;;;;;;7.55;2.78;;;23.10;99.90;;;;;;5010762;28;20747;-71
2023/10/01 11:16:49;;;;;;;8.23;2.67;;;23.10;99.90;;;;;;5011899;28;20233;-71
2023/10/01 11:19:17;;;;;;;7.03;2.58;;;23.20;99.90;;;;;;5011491;28;20312;-72
2023/10/01 11:21:58;;;;;;;7.28;2.47;;;23.20;99.90;;;;;;5011436;28;20208;-72
2023/10/01 11:24:32;;;;;;;7.57;3.08;;;23.20;99.90;;;;;;5011862;28;20232;-72
2023/10/01 11:27:22;;;;;;;8.65;2.90;;;23.20;99.90;;;;;;5011651;28;20284;-71
2023/10/01 11:30:15;;;;;;;7.28;2.58;;;23.10;99.90;;;;;;5009554;28;20594;-72
2023/10/01 11:33:01;;;;;;;7.60;2.55;;;23.20;99.90;;;;;;5010876;28;20205;-72
2023/10/01 11:35:32;;;;;;;7.28;2.58;;;23.10;99.90;;;;;;5008488;28;20224;-72
2023/10/01 11:38:08;;;;;;;6.32;3.05;;;23.20;99.90;;;;;;5008648;28;20697;-72
2023/10/01 11:43:27;;;;;;;6.43;2.67;;;23.50;99.90;;;;;;5011464;28;20217;-73
2023/10/01 11:46:24;;;;;;;6.22;2.60;;;23.40;99.90;;;;;;5011116;28;20202;-73
2023/10/01 11:48:59;;;;;;;6.55;2.40;;;23.40;99.90;;;;;;5010384;28;20206;-72
2023/10/01 11:51:43;;;;;;;10.52;3.25;;;23.40;99.90;;;;;;5009736;28;20209;-72
2023/10/01 11:54:11;;;;;;;7.63;3.03;;;23.40;99.90;;;;;;5011777;28;20251;-72
2023/10/01 11:56:41;;;;;;;9.55;2.90;;;23.50;99.90;;;;;;5011888;28;20234;-72
2023/10/01 11:59:10;;;;;;;9.00;3.10;;;23.60;99.90;;;;;;5012247;28;20202;-72
2023/10/01 12:01:48;;;;;;;7.53;2.78;;;23.60;99.90;;;;;;5011515;28;20666;-71
2023/10/01 12:04:21;;;;;;;11.02;3.45;;;23.50;99.90;;;;;;5010849;28;20210;-71
2023/10/01 12:06:49;;;;;;;11.38;4.30;;;23.40;99.90;;;;;;5015244;28;20666;-74
2023/10/01 12:09:18;;;;;;;7.20;2.90;;;23.60;99.90;;;;;;5016330;28;20623;-71
2023/10/01 12:12:02;;;;;;;8.80;3.03;;;23.70;99.90;;;;;;5015817;28;20263;-71
2023/10/01 12:14:29;;;;;;;7.88;3.25;;;23.60;99.90;;;;;;5015973;28;20296;-72
2023/10/01 12:17:01;;;;;;;7.82;3.15;;;23.60;99.90;;;;;;5016023;28;20268;-72
2023/10/01 12:19:29;;;;;;;8.35;3.25;;;23.60;99.90;;;;;;5015509;28;20226;-71
2023/10/01 12:22:09;;;;;;;6.55;2.80;;;23.60;99.90;;;;;;5016012;28;20210;-72
2023/10/01 12:24:44;;;;;;;8.18;3.25;;;23.70;99.90;;;;;;5015347;28;20215;-72
2023/10/01 12:27:37;;;;;;;7.55;2.80;;;23.80;99.90;;;;;;5016034;28;20232;-72
2023/10/01 12:29:59;;;;;;;8.98;3.17;;;23.80;99.90;;;;;;5014254;28;20222;-71
2023/10/01 12:32:40;;;;;;;8.60;3.03;;;23.70;99.90;;;;;;5015200;28;20229;-73
2023/10/01 12:35:18;;;;;;;7.70;3.17;;;23.70;99.90;;;;;;5013528;28;20645;-73
2023/10/01 12:37:45;;;;;;;9.15;3.35;;;23.80;99.90;;;;;;5013494;28;20312;-73
2023/10/01 12:40:16;;;;;;;8.77;3.22;;;23.90;99.90;;;;;;5014782;28;20767;-73
2023/10/01 12:42:50;;;;;;;12.40;4.00;;;23.80;99.90;;;;;;5015206;28;20248;-73
2023/10/01 12:45:19;;;;;;;10.65;3.58;;;23.80;99.90;;;;;;5012877;28;20209;-73
2023/10/01 12:47:51;;;;;;;8.60;3.22;;;23.70;99.90;;;;;;5015263;28;20204;-73
2023/10/01 12:50:26;;;;;;;10.07;3.58;;;23.90;99.90;;;;;;5011958;28;20218;-72
2023/10/01 12:53:19;;;;;;;7.70;3.20;;;23.90;99.90;;;;;;5014663;28;20283;-73
2023/10/01 12:55:51;;;;;;;7.88;3.35;;;23.80;99.90;;;;;;5014017;28;20193;-73
2023/10/01 12:58:29;;;;;;;9.45;3.40;;;23.90;99.90;;;;;;5014373;28;20252;-72
2023/10/01 13:00:57;;;;;;;9.10;3.60;;;23.80;99.90;;;;;;5012866;28;20229;-73
2023/10/01 13:03:27;;;;;;;6.35;3.03;;;24.00;99.90;;;;;;5014546;28;20202;-73
2023/10/01 13:05:53;;;;;;;9.32;3.45;;;24.00;99.90;;;;;;5014410;28;20229;-71
2023/10/01 13:08:29;;;;;;;7.40;3.28;;;24.00;99.90;;;;;;5014665;28;20209;-72
2023/10/01 13:10:56;;;;;;;7.78;2.60;;;24.00;99.90;;;;;;5014465;28;20555;-72
2023/10/01 13:13:29;;;;;;;9.55;4.00;;;24.10;99.90;;;;;;5009601;28;20224;-70
2023/10/01 13:16:00;;;;;;;7.80;3.38;;;24.20;99.90;;;;;;5010561;28;20259;-73
2023/10/01 13:18:32;;;;;;;10.02;3.47;;;24.30;99.90;;;;;;5011174;28;20324;-72
2023/10/01 13:21:06;;;;;;;9.60;3.97;;;24.30;99.90;;;;;;5013687;28;20613;-72
2023/10/01 13:23:41;;;;;;;6.05;2.83;;;24.20;99.90;;;;;;5013867;28;20198;-73
2023/10/01 13:26:15;;;;;;;10.15;3.72;;;24.20;99.90;;;;;;5011547;28;20228;-74
2023/10/01 13:28:51;;;;;;;10.63;3.85;;;24.20;99.90;;;;;;5011236;28;20198;-72
2023/10/01 13:31:43;;;;;;;8.57;3.47;;;24.20;99.90;;;;;;5013556;28;20213;-71
2023/10/01 13:34:21;;;;;;;10.35;3.95;;;24.20;99.90;;;;;;5011720;28;20224;-72
2023/10/01 13:37:11;;;;;;;10.98;3.38;;;24.20;99.90;;;;;;5011507;28;20300;-72
2023/10/01 13:39:52;;;;;;;9.68;3.85;;;24.20;99.90;;;;;;5012340;28;20221;-72
2023/10/01 14:09:52;;;;;;;10.30;3.83;;;24.60;99.90;;;;;;5002032;28;20518;-72
2023/10/01 14:12:41;;;;;;;11.50;3.65;;;24.50;99.90;;;;;;5019516;28;20201;-72
2023/10/01 14:15:21;;;;;;;10.88;3.97;;;24.40;99.90;;;;;;5013439;28;20665;-72
2023/10/01 14:17:52;;;;;;;7.93;3.05;;;24.40;99.90;;;;;;5013605;28;20776;-72
2023/10/01 14:20:37;;;;;;;15.38;3.75;;;24.40;99.90;;;;;;5013821;28;20256;-73
2023/10/01 14:23:07;;;;;;;10.10;3.83;;;24.50;99.90;;;;;;5013971;28;20209;-73
2023/10/01 14:25:52;;;;;;;13.77;4.35;;;24.60;99.90;;;;;;5013815;28;20300;-72
2023/10/01 14:28:20;;;;;;;9.45;3.40;;;24.60;99.90;;;;;;5013527;28;20552;-73
2023/10/01 14:30:50;;;;;;;9.32;3.55;;;24.70;99.90;;;;;;5014028;28;20327;-73
2023/10/01 14:33:25;;;;;;;8.88;3.63;;;24.60;99.90;;;;;;5013536;28;20217;-73
2023/10/01 14:35:53;;;;;;;8.50;3.65;;;24.60;99.90;;;;;;5013509;28;20209;-73
2023/10/01 14:38:26;;;;;;;9.63;3.80;;;24.60;99.90;;;;;;5013530;28;20618;-72
2023/10/01 14:40:57;;;;;;;14.18;3.78;;;24.60;99.90;;;;;;5013324;28;20257;-73
2023/10/01 14:43:25;;;;;;;8.25;3.45;;;24.80;99.90;;;;;;5013630;28;20208;-72
2023/10/01 14:45:52;;;;;;;11.25;3.53;;;24.90;99.90;;;;;;5013317;28;20209;-72
2023/10/01 14:48:19;;;;;;;11.52;4.20;;;24.90;99.90;;;;;;5013036;28;20252;-72
2023/10/01 14:50:46;;;;;;;8.43;3.17;;;24.90;99.90;;;;;;5012329;28;20261;-72
2023/10/01 14:53:15;;;;;;;8.45;3.17;;;24.90;99.90;;;;;;5012557;28;20233;-72
2023/10/01 14:55:44;;;;;;;11.23;3.92;;;24.80;99.90;;;;;;5012604;28;20209;-73
2023/10/01 14:58:15;;;;;;;9.02;3.63;;;24.90;99.90;;;;;;5012445;28;20244;-73
2023/10/01 15:00:52;;;;;;;7.88;3.58;;;24.80;99.90;;;;;;5012427;28;20272;-72
2023/10/01 15:03:20;;;;;;;8.52;3.42;;;24.70;99.90;;;;;;5012709;28;20204;-73
2023/10/01 15:05:47;;;;;;;9.15;3.75;;;24.70;99.90;;;;;;5012337;28;20208;-73
2023/10/01 15:08:15;;;;;;;8.77;3.80;;;24.70;99.90;;;;;;5012109;28;20205;-73
2023/10/01 15:10:50;;;;;;;8.50;3.50;;;24.70;99.90;;;;;;5012425;28;20265;-72
2023/10/01 15:13:33;;;;;;;7.50;3.05;;;24.60;99.90;;;;;;5012783;28;20297;-72
2023/10/01 15:16:04;;;;;;;8.32;3.25;;;24.60;99.90;;;;;;5012510;28;20235;-72
2023/10/01 15:18:35;;;;;;;7.25;3.13;;;24.60;99.90;;;;;;5013002;28;20236;-73
2023/10/01 15:21:10;;;;;;;8.45;3.53;;;24.60;99.90;;;;;;5012842;28;20267;-72
2023/10/01 15:23:45;;;;;;;8.27;3.30;;;24.60;99.90;;;;;;5012776;28;20209;-72
2023/10/01 15:26:21;;;;;;;9.85;3.55;;;24.50;99.90;;;;;;5007833;28;20201;-74
2023/10/01 15:28:54;;;;;;;7.13;3.08;;;24.40;99.90;;;;;;5012043;28;20263;-74
2023/10/01 15:31:30;;;;;;;10.65;4.07;;;24.40;99.90;;;;;;5012674;28;20615;-74
2023/10/01 15:34:07;;;;;;;7.97;3.38;;;24.30;99.90;;;;;;4992635;28;20217;-74
2023/10/01 15:36:48;;;;;;;8.23;3.47;;;24.20;99.90;;;;;;5003769;28;20208;-73
2023/10/01 15:39:27;;;;;;;7.50;2.85;;;24.20;99.90;;;;;;5012388;28;20260;-73
2023/10/01 15:42:08;;;;;;;9.10;3.55;;;24.20;99.90;;;;;;5015921;28;20291;-73
2023/10/01 15:44:43;;;;;;;8.65;3.70;;;24.20;99.90;;;;;;5016112;28;20201;-73
2023/10/01 15:47:32;;;;;;;7.53;3.33;;;24.20;99.90;;;;;;5030733;28;20569;-73
2023/10/01 15:50:05;;;;;;;9.55;3.47;;;24.20;99.90;;;;;;5035375;28;20228;-73
2023/10/01 15:52:38;;;;;;;8.35;3.42;;;24.20;99.90;;;;;;5035414;28;20215;-73
2023/10/01 15:55:05;;;;;;;8.07;3.35;;;24.20;99.90;;;;;;5035725;28;20232;-74
2023/10/01 15:57:34;;;;;;;8.13;3.30;;;24.20;99.90;;;;;;5034311;28;20240;-74
2023/10/01 16:00:02;;;;;;;7.95;3.35;;;24.10;99.90;;;;;;5035970;28;20228;-73
2023/10/01 16:02:30;;;;;;;7.55;3.22;;;24.00;99.90;;;;;;5036059;28;20211;-74
2023/10/01 16:05:05;;;;;;;8.52;3.78;;;24.00;99.90;;;;;;5035987;28;20271;-73
2023/10/01 16:07:32;;;;;;;9.02;3.45;;;23.80;99.90;;;;;;5017130;28;20205;-74
2023/10/01 16:10:11;;;;;;;7.28;2.88;;;23.80;99.90;;;;;;5015526;28;20287;-73
2023/10/01 16:12:39;;;;;;;7.45;3.08;;;23.70;99.90;;;;;;5016383;28;20292;-74
2023/10/01 16:15:07;;;;;;;8.05;3.10;;;23.70;99.90;;;;;;5015997;28;20241;-73
2023/10/01 16:17:34;;;;;;;7.57;3.00;;;23.70;99.90;;;;;;5015009;28;20260;-73
2023/10/01 16:20:03;;;;;;;6.32;2.72;;;23.70;99.90;;;;;;5014364;28;20245;-74
2023/10/01 16:22:30;;;;;;;10.88;3.13;;;23.70;99.90;;;;;;5031025;28;20208;-73
2023/10/01 16:24:58;;;;;;;8.70;3.70;;;23.60;99.90;;;;;;5035162;28;20193;-72
2023/10/01 16:27:27;;;;;;;7.75;3.40;;;23.60;99.90;;;;;;5034978;28;20318;-73
2023/10/01 16:30:20;;;;;;;9.52;3.30;;;23.60;99.90;;;;;;5011531;28;20249;-73
2023/10/01 16:32:48;;;;;;;9.18;3.33;;;23.50;99.90;;;;;;4995115;28;20312;-73
2023/10/01 16:35:19;;;;;;;6.75;2.80;;;23.40;99.90;;;;;;5011004;28;20205;-73
2023/10/01 16:37:50;;;;;;;6.88;3.17;;;23.40;99.90;;;;;;5015159;28;20808;-72
2023/10/01 16:40:23;;;;;;;6.85;2.90;;;23.30;99.90;;;;;;5015331;28;20706;-72
2023/10/01 16:42:51;;;;;;;7.95;3.35;;;23.10;99.90;;;;;;5015396;28;20565;-72
2023/10/01 16:45:26;;;;;;;8.93;3.13;;;23.00;99.90;;;;;;5009324;28;20209;-73
2023/10/01 16:47:55;;;;;;;8.20;3.55;;;23.00;99.90;;;;;;4996090;28;20608;-73
2023/10/01 16:50:48;;;;;;;9.60;3.70;;;22.80;99.90;;;;;;4995197;28;20240;-73
2023/10/01 16:53:19;;;;;;;10.70;4.28;;;22.70;99.90;;;;;;4995508;28;20207;-73
2023/10/01 16:55:48;;;;;;;8.25;3.28;;;22.60;99.90;;;;;;4995548;28;20236;-73
2023/10/01 16:58:16;;;;;;;7.47;3.38;;;22.50;99.90;;;;;;4995505;28;20230;-73
2023/10/01 17:00:44;;;;;;;9.07;3.30;;;22.40;99.90;;;;;;4995219;28;20695;-73
2023/10/01 17:03:12;;;;;;;7.72;3.38;;;22.20;99.90;;;;;;4994931;28;20229;-73
2023/10/01 17:05:40;;;;;;;8.40;3.13;;;22.20;99.90;;;;;;4995185;28;20293;-73
2023/10/01 17:08:13;;;;;;;8.32;2.72;;;22.10;99.90;;;;;;4995298;28;20206;-73
2023/10/01 17:10:42;;;;;;;8.38;3.20;;;21.90;99.90;;;;;;4994392;28;20230;-73
2023/10/01 17:13:11;;;;;;;10.32;3.47;;;21.80;99.90;;;;;;4995290;28;20202;-73
2023/10/01 17:15:45;;;;;;;6.70;3.17;;;21.70;99.90;;;;;;4994940;28;20220;-73
2023/10/01 17:18:17;;;;;;;10.25;3.50;;;21.60;99.90;;;;;;4994578;28;20722;-73
2023/10/01 17:20:50;;;;;;;7.78;3.63;;;21.50;99.90;;;;;;4994604;28;20226;-73
2023/10/01 17:23:18;;;;;;;7.32;3.05;;;21.40;99.90;;;;;;4994996;28;20206;-73
2023/10/01 17:25:46;;;;;;;7.20;3.25;;;21.30;99.90;;;;;;4995002;28;20297;-73
2023/10/01 17:28:27;;;;;;;9.52;3.35;;;21.20;99.90;;;;;;4994303;28;20298;-73
2023/10/01 17:30:56;;;;;;;9.65;3.78;;;21.10;99.90;;;;;;4994486;28;20222;-72
2023/10/01 17:33:29;;;;;;;8.68;3.30;;;21.00;99.90;;;;;;4994146;28;20221;-73
2023/10/01 17:36:04;;;;;;;8.40;3.20;;;20.90;99.90;;;;;;5006213;28;20209;-72
2023/10/01 17:38:33;;;;;;;7.47;3.05;;;20.80;99.90;;;;;;5014278;28;20244;-73
2023/10/01 17:41:00;;;;;;;9.55;3.75;;;20.70;99.90;;;;;;5014149;28;20705;-73
2023/10/01 17:43:30;;;;;;;7.93;2.95;;;20.60;99.90;;;;;;5014186;28;20688;-72
2023/10/01 17:46:04;;;;;;;6.90;3.03;;;20.50;99.90;;;;;;5014302;28;20240;-72
2023/10/01 17:48:35;;;;;;;8.80;3.17;;;20.40;99.90;;;;;;5006312;28;20210;-73
2023/10/01 17:51:02;;;;;;;10.13;3.60;;;20.30;99.90;;;;;;4994301;28;20703;-73
2023/10/01 17:53:30;;;;;;;7.32;3.38;;;20.20;99.90;;;;;;5008515;28;20629;-73
2023/10/01 17:55:57;;;;;;;10.48;3.80;;;20.10;99.90;;;;;;5013921;28;20201;-73
2023/10/01 17:58:24;;;;;;;10.07;4.00;;;20.10;99.90;;;;;;5012507;28;20309;-72
2023/10/01 18:00:52;;;;;;;8.02;3.05;;;20.00;99.90;;;;;;5013592;28;20261;-72
2023/10/01 18:03:27;;;;;;;8.90;2.92;;;19.80;99.90;;;;;;5013110;28;20241;-72
2023/10/01 18:06:02;;;;;;;9.18;2.72;;;19.80;99.90;;;;;;5008034;28;20198;-72
2023/10/01 18:08:33;;;;;;;7.70;2.95;;;19.70;99.90;;;;;;5001006;28;20217;-72
2023/10/01 18:11:09;;;;;;;8.20;3.20;;;19.70;99.90;;;;;;5003464;28;20232;-72
2023/10/01 18:13:37;;;;;;;7.97;3.47;;;19.70;99.90;;;;;;5008698;28;20209;-72
2023/10/01 18:16:04;;;;;;;8.93;3.50;;;19.60;99.90;;;;;;5010068;28;20296;-72
2023/10/01 18:18:33;;;;;;;9.82;3.50;;;19.60;99.90;;;;;;5002712;28;20324;-72
2023/10/01 18:21:02;;;;;;;7.95;3.55;;;19.50;99.90;;;;;;5007079;28;20227;-72
2023/10/01 18:23:30;;;;;;;8.88;3.42;;;19.40;99.90;;;;;;5005455;28;20206;-72
2023/10/01 18:25:59;;;;;;;8.57;3.22;;;19.40;99.90;;;;;;5013546;28;20301;-72
2023/10/01 18:28:27;;;;;;;9.73;4.03;;;19.50;99.90;;;;;;5012694;28;20249;-72
2023/10/01 18:30:55;;;;;;;11.55;3.72;;;19.40;99.90;;;;;;5013250;28;20660;-72
2023/10/01 18:33:25;;;;;;;8.55;3.35;;;19.40;99.90;;;;;;5013097;28;20271;-72
2023/10/01 18:35:56;;;;;;;9.82;3.17;;;19.40;99.90;;;;;;5012879;28;20678;-72
2023/10/01 18:38:23;;;;;;;10.70;3.95;;;19.40;99.90;;;;;;5012696;28;20240;-72
2023/10/01 18:40:52;;;;;;;9.10;3.30;;;19.30;99.90;;;;;;5013125;28;20264;-72
2023/10/01 18:43:19;;;;;;;6.25;2.80;;;19.10;99.90;;;;;;5013162;28;20631;-72
2023/10/01 18:45:50;;;;;;;9.30;3.85;;;19.10;99.90;;;;;;5013120;28;20638;-72
2023/10/01 18:48:17;;;;;;;8.07;3.22;;;19.00;99.90;;;;;;5006721;28;20218;-72
2023/10/01 18:50:44;;;;;;;9.90;3.47;;;19.00;99.90;;;;;;5009088;28;20248;-72
2023/10/01 18:53:12;;;;;;;8.35;3.28;;;18.80;99.90;;;;;;5012352;28;20241;-73
2023/10/01 18:55:40;;;;;;;7.93;3.33;;;18.80;99.90;;;;;;5012538;28;20229;-73
2023/10/01 18:58:17;;;;;;;9.63;4.25;;;18.80;99.90;;;;;;5011933;28;20206;-73
2023/10/01 19:00:44;;;;;;;10.75;4.13;;;18.80;99.90;;;;;;5011319;28;20225;-73
2023/10/01 19:03:12;;;;;;;10.70;3.67;;;18.70;99.90;;;;;;5011408;28;20216;-73
2023/10/01 19:05:40;;;;;;;7.72;3.13;;;18.70;99.90;;;;;;5010954;28;20304;-73
2023/10/01 19:08:07;;;;;;;7.82;3.30;;;18.60;99.90;;;;;;5013366;28;20213;-73
2023/10/01 19:10:36;;;;;;;9.05;3.28;;;18.60;99.90;;;;;;5012704;28;20354;-74
2023/10/01 19:13:04;;;;;;;10.43;3.72;;;18.60;99.90;;;;;;5012050;28;20634;-74
2023/10/01 19:15:32;;;;;;;6.97;3.28;;;18.60;99.90;;;;;;5012029;28;20245;-73
2023/10/01 19:17:59;;;;;;;12.07;4.68;;;18.60;99.90;;;;;;5012758;28;20205;-73
2023/10/01 19:20:28;;;;;;;12.05;4.93;;;18.60;99.90;;;;;;5012450;28;20265;-73
2023/10/01 19:22:57;;;;;;;10.93;3.80;;;18.60;99.90;;;;;;5012379;28;20205;-73
2023/10/01 19:25:25;;;;;;;10.70;3.38;;;18.60;99.90;;;;;;5009562;28;20285;-73
2023/10/01 19:27:55;;;;;;;11.07;3.70;;;18.70;99.90;;;;;;5011419;28;20206;-73
2023/10/01 19:30:23;;;;;;;10.25;3.30;;;18.70;99.90;;;;;;5008869;28;20756;-73
2023/10/01 19:32:50;;;;;;;7.65;2.80;;;18.60;99.90;;;;;;5011425;28;20288;-73
2023/10/01 19:35:20;;;;;;;10.73;3.70;;;18.60;99.90;;;;;;5011637;28;20247;-73
2023/10/01 19:37:47;;;;;;;11.02;3.75;;;18.60;99.90;;;;;;5012309;28;20206;-73
2023/10/01 19:40:18;;;;;;;6.75;2.88;;;18.60;99.90;;;;;;5011666;28;20740;-73
2023/10/01 19:42:46;;;;;;;8.57;3.08;;;18.60;99.90;;;;;;5011857;28;20208;-74
2023/10/01 19:45:21;;;;;;;9.20;3.15;;;18.60;99.90;;;;;;5012577;28;20614;-73
2023/10/01 19:47:49;;;;;;;7.53;3.13;;;18.60;99.90;;;;;;5012831;28;20240;-73
2023/10/01 19:50:35;;;;;;;9.23;3.47;;;18.60;99.90;;;;;;5012255;28;20261;-72
2023/10/01 19:53:08;;;;;;;8.32;2.45;;;18.50;99.90;;;;;;5010396;28;20202;-73
2023/10/01 19:55:36;;;;;;;8.55;3.30;;;18.50;99.90;;;;;;5011143;28;20212;-73
2023/10/01 19:58:03;;;;;;;8.43;3.15;;;18.40;99.90;;;;;;5010982;28;20639;-73
2023/10/01 20:00:33;;;;;;;9.05;3.00;;;18.60;99.90;;;;;;5011120;28;20328;-73
2023/10/01 20:03:10;;;;;;;8.77;3.03;;;18.70;99.90;;;;;;5012041;28;20202;-73
2023/10/01 20:05:38;;;;;;;8.98;3.03;;;18.80;99.90;;;;;;5012153;28;20307;-73
2023/10/01 20:08:07;;;;;;;7.30;3.00;;;18.90;99.90;;;;;;5011874;28;20241;-73
2023/10/01 20:10:35;;;;;;;8.15;2.92;;;19.00;99.90;;;;;;5011729;28;20724;-73
2023/10/01 20:13:02;;;;;;;5.32;2.42;;;19.00;99.90;;;;;;5010924;28;20237;-73
2023/10/01 20:15:31;;;;;;;10.95;4.18;;;19.10;99.90;;;;;;5010575;28;20245;-74
2023/10/01 20:18:02;;;;;;;7.70;2.97;;;19.10;99.90;;;;;;5011169;28;20637;-73
2023/10/01 20:20:31;;;;;;;8.02;3.00;;;19.10;99.90;;;;;;4992095;28;20270;-73
2023/10/01 20:22:59;;;;;;;9.35;2.95;;;19.10;99.90;;;;;;4992328;28;20662;-73
2023/10/01 20:25:32;;;;;;;9.57;3.40;;;19.10;99.90;;;;;;4992730;28;20238;-73
2023/10/01 20:28:03;;;;;;;7.97;2.97;;;19.20;99.90;;;;;;4996156;28;20207;-73
2023/10/01 20:30:34;;;;;;;9.82;2.47;;;19.30;99.90;;;;;;4996787;28;20313;-73
2023/10/01 20:33:03;;;;;;;8.80;2.85;;;19.30;99.90;;;;;;4995797;28;20301;-73
2023/10/01 20:35:37;;;;;;;9.50;3.28;;;19.30;99.90;;;;;;5002316;28;20194;-73
2023/10/01 20:38:04;;;;;;;8.55;3.60;;;19.40;99.90;;;;;;5015842;28;20201;-74
2023/10/01 20:40:31;;;;;;;7.90;2.60;;;19.40;99.90;;;;;;5015633;28;20265;-73
2023/10/01 20:43:00;;;;;;;5.70;2.85;;;19.40;99.90;;;;;;5015563;28;20299;-74
2023/10/01 20:45:32;;;;;;;9.25;3.42;;;19.30;99.90;;;;;;5015796;28;20217;-72
2023/10/01 20:48:01;;;;;;;8.75;3.17;;;19.30;99.90;;;;;;5015742;28;20212;-72
2023/10/01 20:50:37;;;;;;;12.32;4.03;;;19.30;99.90;;;;;;5015423;28;20283;-73
2023/10/01 20:53:04;;;;;;;8.50;3.53;;;19.30;99.90;;;;;;5011634;28;20201;-72
2023/10/01 20:55:32;;;;;;;6.97;2.78;;;19.20;99.90;;;;;;5011202;28;20233;-72
2023/10/01 20:58:03;;;;;;;9.43;3.03;;;19.20;99.90;;;;;;5013667;28;20201;-72
2023/10/01 21:00:41;;;;;;;7.68;3.20;;;19.20;99.90;;;;;;5014203;28;20237;-72
